Dritto — IIOV2 — position and weather

sailwx.info

Track history (hours):
 
Tides and Currents Weather Stations Pressure Air Temp Water Temp Dewpoint Dewpoint Depression Visibility Wind Speed Wind Dir Waves Ship Positions

Dritto

Last reported at 2018-Mar-20 14:51 UTC. Time now 2018-Apr-24 23:05 UTC.
Position N 40°30' E 017°09'.
Warning: this ship's position is 35 days out of date.

Length 27 m; draft 5.5 m.

Type: Tug. MMSI: 247269900.

Date/timePositionNaut miles runAvg speedWind from/ knotsBaromVisibWave heightAir tempDewpointWater temp
2018-Mar-20 14:51N 40°30' E 017°09'  
2018-Mar-16 09:45N 40°29' E 017°13'3 0.1
2018-Mar-15 10:03N 40°30' E 017°10'0 2.8
2018-Mar-15 10:00N 40°30' E 017°09'1 1.2
2018-Mar-15 09:29N 40°29' E 017°10'3 5.5
2018-Mar-15 09:00N 40°28' E 017°13'1 1.8
2018-Mar-15 08:30N 40°29' E 017°13'0 0.0
2018-Mar-15 07:59N 40°29' E 017°13'0 0.0
2018-Mar-15 07:30N 40°29' E 017°13'0 0.0
2018-Mar-15 07:01N 40°29' E 017°13'0 0.0
2018-Mar-15 06:31N 40°29' E 017°13'0 0.0
2018-Mar-15 06:00N 40°29' E 017°13'0 0.0
2018-Mar-15 05:30N 40°29' E 017°13'0 0.0
2018-Mar-15 05:00N 40°29' E 017°13'0 0.0
2018-Mar-15 04:31N 40°29' E 017°13'0 0.0
2018-Mar-15 04:00N 40°29' E 017°13'0 0.0
2018-Mar-15 03:30N 40°29' E 017°13'0 0.0
2018-Mar-15 03:01N 40°29' E 017°13'0 0.0
2018-Mar-15 02:30N 40°29' E 017°13'0 0.0
2018-Mar-15 02:00N 40°29' E 017°13'0 0.0
2018-Mar-15 01:29N 40°29' E 017°13'0 0.0
2018-Mar-15 01:00N 40°29' E 017°13'0 0.0
2018-Mar-15 00:31N 40°29' E 017°13'0 0.0
2018-Mar-15 00:01N 40°29' E 017°13'0 0.0
2018-Mar-14 23:30N 40°29' E 017°13'0 0.0
2018-Mar-14 23:00N 40°29' E 017°13'0 0.0
2018-Mar-14 22:30N 40°29' E 017°13'0 0.0
2018-Mar-14 22:00N 40°29' E 017°13'0 0.0
2018-Mar-14 21:31N 40°29' E 017°13'0 0.0
2018-Mar-14 21:01N 40°29' E 017°13'0 0.0
2018-Mar-14 20:31N 40°29' E 017°13'0 0.0
2018-Mar-14 20:00N 40°29' E 017°13'0 0.0
2018-Mar-14 19:30N 40°29' E 017°13'0 0.0
2018-Mar-14 19:01N 40°29' E 017°13'0 0.0
2018-Mar-14 18:31N 40°29' E 017°13'0 0.0
2018-Mar-14 18:00N 40°29' E 017°13'0 0.0
2018-Mar-14 17:31N 40°29' E 017°13'0 0.0
2018-Mar-14 17:00N 40°29' E 017°13'0 0.0
2018-Mar-14 16:30N 40°29' E 017°13'0 0.0
2018-Mar-14 16:01N 40°29' E 017°13'0 0.0
2018-Mar-14 15:30N 40°29' E 017°13'0 0.0
2018-Mar-14 15:00N 40°29' E 017°13'0 0.0
2018-Mar-14 14:30N 40°29' E 017°13'0 0.0
2018-Mar-14 14:00N 40°29' E 017°13'0 0.0
2018-Mar-14 13:30N 40°29' E 017°13'0 0.0
2018-Mar-14 13:00N 40°29' E 017°13'0 0.0
2018-Mar-14 12:30N 40°29' E 017°13'0 0.0
2018-Mar-14 12:00N 40°29' E 017°13'0 0.0
2018-Mar-14 11:30N 40°29' E 017°13'0 0.0
2018-Mar-14 11:00N 40°29' E 017°13'0 0.0
2018-Mar-14 10:30N 40°29' E 017°13'1 2.5
2018-Mar-14 10:00N 40°28' E 017°12'0 0.2
2018-Mar-14 09:31N 40°28' E 017°12'1 2.6
2018-Mar-14 09:00N 40°27' E 017°12'1 1.5
2018-Mar-14 08:30N 40°27' E 017°13'1 2.9
2018-Mar-14 08:00N 40°29' E 017°13'0 0.0
2018-Mar-14 07:30N 40°29' E 017°13'0 0.0
2018-Mar-14 07:00N 40°29' E 017°13'0 0.0
2018-Mar-14 06:30N 40°29' E 017°13'0 0.0
2018-Mar-14 06:01N 40°29' E 017°13'0 0.0
2018-Mar-14 05:31N 40°29' E 017°13'0 0.0
2018-Mar-14 05:00N 40°29' E 017°13'0 0.0
2018-Mar-14 04:30N 40°29' E 017°13'0 0.0
2018-Mar-14 04:00N 40°29' E 017°13'0 0.0
2018-Mar-14 03:30N 40°29' E 017°13'0 0.0
2018-Mar-14 03:01N 40°29' E 017°13'0 0.0
2018-Mar-14 02:31N 40°29' E 017°13'0 0.0
2018-Mar-14 02:00N 40°29' E 017°13'0 0.0
2018-Mar-14 01:30N 40°29' E 017°13'0 0.0
2018-Mar-14 01:01N 40°29' E 017°13'0 0.0
2018-Mar-14 00:31N 40°29' E 017°13'0 0.0
2018-Mar-14 00:00N 40°29' E 017°13'0 0.0
2018-Mar-13 23:30N 40°29' E 017°13'0 0.0
2018-Mar-13 23:00N 40°29' E 017°13'0 0.0
2018-Mar-13 22:31N 40°29' E 017°13'0 0.0
2018-Mar-13 22:01N 40°29' E 017°13'0 0.0
2018-Mar-13 21:30N 40°29' E 017°13'0 0.0
2018-Mar-13 21:00N 40°29' E 017°13'0 0.0
2018-Mar-13 20:30N 40°29' E 017°13'0 0.0
2018-Mar-13 20:00N 40°29' E 017°13'0 0.0
2018-Mar-13 19:31N 40°29' E 017°13'0 0.0
2018-Mar-13 19:01N 40°29' E 017°13'0 0.0
2018-Mar-13 18:31N 40°29' E 017°13'0 0.0
2018-Mar-13 18:00N 40°29' E 017°13'0 0.0
2018-Mar-13 17:30N 40°29' E 017°13'0 0.0
2018-Mar-13 17:00N 40°29' E 017°13'0 0.0
2018-Mar-13 16:30N 40°29' E 017°13'0 0.0
2018-Mar-13 16:00N 40°29' E 017°13'0 0.0
2018-Mar-13 15:31N 40°29' E 017°13'0 0.0
2018-Mar-13 15:01N 40°29' E 017°13'0 0.0
2018-Mar-13 14:30N 40°29' E 017°13'1 1.2
2018-Mar-13 14:01N 40°29' E 017°12'0 0.0
2018-Mar-13 13:31N 40°29' E 017°12'0 0.3
2018-Mar-13 13:00N 40°28' E 017°13'1 1.2
2018-Mar-13 12:31N 40°29' E 017°13'0 0.0
2018-Mar-13 12:01N 40°29' E 017°13'0 0.0
2018-Mar-13 11:30N 40°29' E 017°13'0 0.0
2018-Mar-13 11:00N 40°29' E 017°13'0 0.0
2018-Mar-13 10:31N 40°29' E 017°13'0 0.0
2018-Mar-13 10:00N 40°29' E 017°13'0 0.0
2018-Mar-13 09:30N 40°29' E 017°13'0 0.0
2018-Mar-13 09:00N 40°29' E 017°13'0 0.0
2018-Mar-13 08:30N 40°29' E 017°13'0 0.0
2018-Mar-13 08:00N 40°29' E 017°13'0 0.0
2018-Mar-13 07:31N 40°29' E 017°13'0 0.0
2018-Mar-13 07:01N 40°29' E 017°13'0 0.0
2018-Mar-13 06:30N 40°29' E 017°13'0 0.0
2018-Mar-13 06:00N 40°29' E 017°13'0 0.0
2018-Mar-13 05:30N 40°29' E 017°13'0 0.0
2018-Mar-13 05:00N 40°29' E 017°13'0 0.1
2018-Mar-13 04:28N 40°29' E 017°13'0 0.1
2018-Mar-13 04:01N 40°29' E 017°13'0 0.0
2018-Mar-13 03:30N 40°29' E 017°13'0 0.0
2018-Mar-13 03:01N 40°29' E 017°13'0 0.0
2018-Mar-13 02:31N 40°29' E 017°13'0 0.0
2018-Mar-13 02:01N 40°29' E 017°13'0 0.0
2018-Mar-13 01:30N 40°29' E 017°13'0 0.0
2018-Mar-13 00:58N 40°29' E 017°13'0 0.0
2018-Mar-13 00:08N 40°29' E 017°13'0 0.1
2018-Mar-12 23:55N 40°29' E 017°13'0 0.0
2018-Mar-12 23:30N 40°29' E 017°13'0 0.0
2018-Mar-12 23:00N 40°29' E 017°13'0 0.0
2018-Mar-12 22:30N 40°29' E 017°13'0 0.0
2018-Mar-12 22:00N 40°29' E 017°13'0 0.0
2018-Mar-12 21:30N 40°29' E 017°13'0 0.0
2018-Mar-12 21:00N 40°29' E 017°13'1 1.8
2018-Mar-12 20:30N 40°28' E 017°13'1 1.6
2018-Mar-12 20:00N 40°28' E 017°12'1 2.4
2018-Mar-12 19:31N 40°29' E 017°13'0 0.0
2018-Mar-12 19:00N 40°29' E 017°13'0 0.0
2018-Mar-12 18:30N 40°29' E 017°13'0 0.0
2018-Mar-12 18:00N 40°29' E 017°13'1 1.6
2018-Mar-12 17:30N 40°28' E 017°13'3 6.7
2018-Mar-12 17:00N 40°30' E 017°10'0 0.2
2018-Mar-12 16:30N 40°30' E 017°10'1 1.7
2018-Mar-12 16:00N 40°29' E 017°09'1 1.3
2018-Mar-12 15:30N 40°29' E 017°10'2 3.2
2018-Mar-12 15:00N 40°28' E 017°12'0 0.6
2018-Mar-12 14:30N 40°28' E 017°12'1 2.7
2018-Mar-12 14:00N 40°29' E 017°13'0 0.4
2018-Mar-12 13:30N 40°29' E 017°13'0 0.0
2018-Mar-12 13:00N 40°29' E 017°13'0 0.0
2018-Mar-12 12:30N 40°29' E 017°13'0 0.0
2018-Mar-12 12:00N 40°29' E 017°13'0 0.0
2018-Mar-12 11:30N 40°29' E 017°13'0 0.0
2018-Mar-12 11:00N 40°29' E 017°13'0 0.0
2018-Mar-12 10:30N 40°29' E 017°13'0 0.0
2018-Mar-12 10:00N 40°29' E 017°13'0 0.0
2018-Mar-12 09:30N 40°29' E 017°13'0 0.0
2018-Mar-12 09:00N 40°29' E 017°13'0 0.1
2018-Mar-12 08:30N 40°29' E 017°13'0 0.0
2018-Mar-12 07:59N 40°29' E 017°13'0 0.0
2018-Mar-12 07:30N 40°29' E 017°13'0 0.0
2018-Mar-12 07:00N 40°29' E 017°13'0 0.0
2018-Mar-12 06:30N 40°29' E 017°13'0 0.0
2018-Mar-12 06:00N 40°29' E 017°13'0 0.0
2018-Mar-12 05:30N 40°29' E 017°13'0 0.0
2018-Mar-12 05:01N 40°29' E 017°13'0 0.0
2018-Mar-12 04:30N 40°29' E 017°13'0 0.0
2018-Mar-12 04:01N 40°29' E 017°13'0 0.0
2018-Mar-12 03:30N 40°29' E 017°13'0 0.0
2018-Mar-12 03:00N 40°29' E 017°13'0 0.0
2018-Mar-12 02:30N 40°29' E 017°13'0 0.0
2018-Mar-12 02:00N 40°29' E 017°13'0 0.0
2018-Mar-12 01:31N 40°29' E 017°13'0 0.0
2018-Mar-12 01:01N 40°29' E 017°13'0 0.0
2018-Mar-12 00:30N 40°29' E 017°13'0 0.0
2018-Mar-12 00:00N 40°29' E 017°13'0 0.0
2018-Mar-11 23:30N 40°29' E 017°13'0 0.0
2018-Mar-11 23:00N 40°29' E 017°13'0 0.0
2018-Mar-11 22:30N 40°29' E 017°13'0 0.0
2018-Mar-11 22:00N 40°29' E 017°13'0 0.0
2018-Mar-11 21:31N 40°29' E 017°13'0 0.0
2018-Mar-11 21:00N 40°29' E 017°13'0 0.0
2018-Mar-11 20:30N 40°29' E 017°13'0 0.0
2018-Mar-11 20:00N 40°29' E 017°13'0 0.0
2018-Mar-11 19:30N 40°29' E 017°13'0 0.0
2018-Mar-11 19:00N 40°29' E 017°13'0 0.0
2018-Mar-11 18:30N 40°29' E 017°13'1 1.8
2018-Mar-11 18:00N 40°28' E 017°13'3 6.7
2018-Mar-11 17:30N 40°30' E 017°09'0 0.8
2018-Mar-11 17:00N 40°30' E 017°10'1 2.7
2018-Mar-11 16:30N 40°30' E 017°08'3 4.8
2018-Mar-11 15:59N 40°28' E 017°11'2 4.2
2018-Mar-11 15:31N 40°29' E 017°13'0 0.0
2018-Mar-11 15:01N 40°29' E 017°13'0 0.9
2018-Mar-11 14:30N 40°28' E 017°13'0 0.9
2018-Mar-11 14:00N 40°28' E 017°13'0 0.8
2018-Mar-11 13:30N 40°29' E 017°13'0 0.0
2018-Mar-11 13:01N 40°29' E 017°13'0 0.0
2018-Mar-11 12:30N 40°29' E 017°13'0 0.0
2018-Mar-11 12:00N 40°29' E 017°13'0 0.0
2018-Mar-11 11:30N 40°29' E 017°13'0 0.0
2018-Mar-11 11:00N 40°29' E 017°13'0 0.0
2018-Mar-11 10:30N 40°29' E 017°13'0 0.0
2018-Mar-11 10:00N 40°29' E 017°13'0 0.0
2018-Mar-11 09:30N 40°29' E 017°13'0 0.0
2018-Mar-11 09:00N 40°29' E 017°13'0 0.4
2018-Mar-11 08:30N 40°29' E 017°13'0 0.3
2018-Mar-11 08:00N 40°29' E 017°13'0 0.7
2018-Mar-11 07:30N 40°29' E 017°13'0 0.0
2018-Mar-11 07:01N 40°29' E 017°13'0 0.0
2018-Mar-11 06:30N 40°29' E 017°13'0 0.0
2018-Mar-11 06:00N 40°29' E 017°13'0 0.0
2018-Mar-11 05:30N 40°29' E 017°13'0 0.0
2018-Mar-11 05:01N 40°29' E 017°13'0 0.0
2018-Mar-11 04:31N 40°29' E 017°13'0 0.0
2018-Mar-11 04:00N 40°29' E 017°13'0 0.0
2018-Mar-11 03:30N 40°29' E 017°13'0 0.0
2018-Mar-11 03:00N 40°29' E 017°13'0 0.0
2018-Mar-11 02:30N 40°29' E 017°13'0 0.0
2018-Mar-11 01:59N 40°29' E 017°13'0 0.0
2018-Mar-11 01:30N 40°29' E 017°13'0 0.0
2018-Mar-11 00:59N 40°29' E 017°13'0 0.0
2018-Mar-11 00:30N 40°29' E 017°13'0 0.0
2018-Mar-11 00:00N 40°29' E 017°13'0 0.0
2018-Mar-10 23:30N 40°29' E 017°13'0 0.0
2018-Mar-10 23:00N 40°29' E 017°13'0 0.0
2018-Mar-10 22:30N 40°29' E 017°13'0 0.0
2018-Mar-10 22:01N 40°29' E 017°13'0 0.0
2018-Mar-10 21:30N 40°29' E 017°13'0 0.0
2018-Mar-10 21:01N 40°29' E 017°13'0 0.0
2018-Mar-10 20:30N 40°29' E 017°13'0 0.0
2018-Mar-10 20:01N 40°29' E 017°13'0 0.0
2018-Mar-10 19:30N 40°29' E 017°13'1 1.6
2018-Mar-10 19:00N 40°28' E 017°13'1 1.7
2018-Mar-10 18:30N 40°28' E 017°12'1 1.8
2018-Mar-10 18:00N 40°28' E 017°13'1 1.0
2018-Mar-10 17:30N 40°29' E 017°12'0 0.8
2018-Mar-10 17:00N 40°28' E 017°13'1 1.8
2018-Mar-10 16:30N 40°27' E 017°13'1 2.0
2018-Mar-10 16:00N 40°26' E 017°12'2 3.8
2018-Mar-10 15:30N 40°28' E 017°13'0 0.9
2018-Mar-10 15:00N 40°29' E 017°13'  
Track history (hours):
 
Tides and Currents Weather Stations Pressure Air Temp Water Temp Dewpoint Dewpoint Depression Visibility Wind Speed Wind Dir Waves Ship Positions

Dritto

Last reported at 2018-Mar-20 14:51 UTC. Time now 2018-Apr-24 23:05 UTC.
Position N 40°30' E 017°09'.
Warning: this ship's position is 35 days out of date.

Length 27 m; draft 5.5 m.

Type: Tug. MMSI: 247269900.

Date/timePositionNaut miles runAvg speedWind from/ knotsBaromVisibWave heightAir tempDewpointWater temp
2018-Mar-20 14:51N 40°30' E 017°09'  
2018-Mar-16 09:45N 40°29' E 017°13'3 0.1
2018-Mar-15 10:03N 40°30' E 017°10'0 2.8
2018-Mar-15 10:00N 40°30' E 017°09'1 1.2
2018-Mar-15 09:29N 40°29' E 017°10'3 5.5
2018-Mar-15 09:00N 40°28' E 017°13'1 1.8
2018-Mar-15 08:30N 40°29' E 017°13'0 0.0
2018-Mar-15 07:59N 40°29' E 017°13'0 0.0
2018-Mar-15 07:30N 40°29' E 017°13'0 0.0
2018-Mar-15 07:01N 40°29' E 017°13'0 0.0
2018-Mar-15 06:31N 40°29' E 017°13'0 0.0
2018-Mar-15 06:00N 40°29' E 017°13'0 0.0
2018-Mar-15 05:30N 40°29' E 017°13'0 0.0
2018-Mar-15 05:00N 40°29' E 017°13'0 0.0
2018-Mar-15 04:31N 40°29' E 017°13'0 0.0
2018-Mar-15 04:00N 40°29' E 017°13'0 0.0
2018-Mar-15 03:30N 40°29' E 017°13'0 0.0
2018-Mar-15 03:01N 40°29' E 017°13'0 0.0
2018-Mar-15 02:30N 40°29' E 017°13'0 0.0
2018-Mar-15 02:00N 40°29' E 017°13'0 0.0
2018-Mar-15 01:29N 40°29' E 017°13'0 0.0
2018-Mar-15 01:00N 40°29' E 017°13'0 0.0
2018-Mar-15 00:31N 40°29' E 017°13'0 0.0
2018-Mar-15 00:01N 40°29' E 017°13'0 0.0
2018-Mar-14 23:30N 40°29' E 017°13'0 0.0
2018-Mar-14 23:00N 40°29' E 017°13'0 0.0
2018-Mar-14 22:30N 40°29' E 017°13'0 0.0
2018-Mar-14 22:00N 40°29' E 017°13'0 0.0
2018-Mar-14 21:31N 40°29' E 017°13'0 0.0
2018-Mar-14 21:01N 40°29' E 017°13'0 0.0
2018-Mar-14 20:31N 40°29' E 017°13'0 0.0
2018-Mar-14 20:00N 40°29' E 017°13'0 0.0
2018-Mar-14 19:30N 40°29' E 017°13'0 0.0
2018-Mar-14 19:01N 40°29' E 017°13'0 0.0
2018-Mar-14 18:31N 40°29' E 017°13'0 0.0
2018-Mar-14 18:00N 40°29' E 017°13'0 0.0
2018-Mar-14 17:31N 40°29' E 017°13'0 0.0
2018-Mar-14 17:00N 40°29' E 017°13'0 0.0
2018-Mar-14 16:30N 40°29' E 017°13'0 0.0
2018-Mar-14 16:01N 40°29' E 017°13'0 0.0
2018-Mar-14 15:30N 40°29' E 017°13'0 0.0
2018-Mar-14 15:00N 40°29' E 017°13'0 0.0
2018-Mar-14 14:30N 40°29' E 017°13'0 0.0
2018-Mar-14 14:00N 40°29' E 017°13'0 0.0
2018-Mar-14 13:30N 40°29' E 017°13'0 0.0
2018-Mar-14 13:00N 40°29' E 017°13'0 0.0
2018-Mar-14 12:30N 40°29' E 017°13'0 0.0
2018-Mar-14 12:00N 40°29' E 017°13'0 0.0
2018-Mar-14 11:30N 40°29' E 017°13'0 0.0
2018-Mar-14 11:00N 40°29' E 017°13'0 0.0
2018-Mar-14 10:30N 40°29' E 017°13'1 2.5
2018-Mar-14 10:00N 40°28' E 017°12'0 0.2
2018-Mar-14 09:31N 40°28' E 017°12'1 2.6
2018-Mar-14 09:00N 40°27' E 017°12'1 1.5
2018-Mar-14 08:30N 40°27' E 017°13'1 2.9
2018-Mar-14 08:00N 40°29' E 017°13'0 0.0
2018-Mar-14 07:30N 40°29' E 017°13'0 0.0
2018-Mar-14 07:00N 40°29' E 017°13'0 0.0
2018-Mar-14 06:30N 40°29' E 017°13'0 0.0
2018-Mar-14 06:01N 40°29' E 017°13'0 0.0
2018-Mar-14 05:31N 40°29' E 017°13'0 0.0
2018-Mar-14 05:00N 40°29' E 017°13'0 0.0
2018-Mar-14 04:30N 40°29' E 017°13'0 0.0
2018-Mar-14 04:00N 40°29' E 017°13'0 0.0
2018-Mar-14 03:30N 40°29' E 017°13'0 0.0
2018-Mar-14 03:01N 40°29' E 017°13'0 0.0
2018-Mar-14 02:31N 40°29' E 017°13'0 0.0
2018-Mar-14 02:00N 40°29' E 017°13'0 0.0
2018-Mar-14 01:30N 40°29' E 017°13'0 0.0
2018-Mar-14 01:01N 40°29' E 017°13'0 0.0
2018-Mar-14 00:31N 40°29' E 017°13'0 0.0
2018-Mar-14 00:00N 40°29' E 017°13'0 0.0
2018-Mar-13 23:30N 40°29' E 017°13'0 0.0
2018-Mar-13 23:00N 40°29' E 017°13'0 0.0
2018-Mar-13 22:31N 40°29' E 017°13'0 0.0
2018-Mar-13 22:01N 40°29' E 017°13'0 0.0
2018-Mar-13 21:30N 40°29' E 017°13'0 0.0
2018-Mar-13 21:00N 40°29' E 017°13'0 0.0
2018-Mar-13 20:30N 40°29' E 017°13'0 0.0
2018-Mar-13 20:00N 40°29' E 017°13'0 0.0
2018-Mar-13 19:31N 40°29' E 017°13'0 0.0
2018-Mar-13 19:01N 40°29' E 017°13'0 0.0
2018-Mar-13 18:31N 40°29' E 017°13'0 0.0
2018-Mar-13 18:00N 40°29' E 017°13'0 0.0
2018-Mar-13 17:30N 40°29' E 017°13'0 0.0
2018-Mar-13 17:00N 40°29' E 017°13'0 0.0
2018-Mar-13 16:30N 40°29' E 017°13'0 0.0
2018-Mar-13 16:00N 40°29' E 017°13'0 0.0
2018-Mar-13 15:31N 40°29' E 017°13'0 0.0
2018-Mar-13 15:01N 40°29' E 017°13'0 0.0
2018-Mar-13 14:30N 40°29' E 017°13'1 1.2
2018-Mar-13 14:01N 40°29' E 017°12'0 0.0
2018-Mar-13 13:31N 40°29' E 017°12'0 0.3
2018-Mar-13 13:00N 40°28' E 017°13'1 1.2
2018-Mar-13 12:31N 40°29' E 017°13'0 0.0
2018-Mar-13 12:01N 40°29' E 017°13'0 0.0
2018-Mar-13 11:30N 40°29' E 017°13'0 0.0
2018-Mar-13 11:00N 40°29' E 017°13'0 0.0
2018-Mar-13 10:31N 40°29' E 017°13'0 0.0
2018-Mar-13 10:00N 40°29' E 017°13'0 0.0
2018-Mar-13 09:30N 40°29' E 017°13'0 0.0
2018-Mar-13 09:00N 40°29' E 017°13'0 0.0
2018-Mar-13 08:30N 40°29' E 017°13'0 0.0
2018-Mar-13 08:00N 40°29' E 017°13'0 0.0
2018-Mar-13 07:31N 40°29' E 017°13'0 0.0
2018-Mar-13 07:01N 40°29' E 017°13'0 0.0
2018-Mar-13 06:30N 40°29' E 017°13'0 0.0
2018-Mar-13 06:00N 40°29' E 017°13'0 0.0
2018-Mar-13 05:30N 40°29' E 017°13'0 0.0
2018-Mar-13 05:00N 40°29' E 017°13'0 0.1
2018-Mar-13 04:28N 40°29' E 017°13'0 0.1
2018-Mar-13 04:01N 40°29' E 017°13'0 0.0
2018-Mar-13 03:30N 40°29' E 017°13'0 0.0
2018-Mar-13 03:01N 40°29' E 017°13'0 0.0
2018-Mar-13 02:31N 40°29' E 017°13'0 0.0
2018-Mar-13 02:01N 40°29' E 017°13'0 0.0
2018-Mar-13 01:30N 40°29' E 017°13'0 0.0
2018-Mar-13 00:58N 40°29' E 017°13'0 0.0
2018-Mar-13 00:08N 40°29' E 017°13'0 0.1
2018-Mar-12 23:55N 40°29' E 017°13'0 0.0
2018-Mar-12 23:30N 40°29' E 017°13'0 0.0
2018-Mar-12 23:00N 40°29' E 017°13'0 0.0
2018-Mar-12 22:30N 40°29' E 017°13'0 0.0
2018-Mar-12 22:00N 40°29' E 017°13'0 0.0
2018-Mar-12 21:30N 40°29' E 017°13'0 0.0
2018-Mar-12 21:00N 40°29' E 017°13'1 1.8
2018-Mar-12 20:30N 40°28' E 017°13'1 1.6
2018-Mar-12 20:00N 40°28' E 017°12'1 2.4
2018-Mar-12 19:31N 40°29' E 017°13'0 0.0
2018-Mar-12 19:00N 40°29' E 017°13'0 0.0
2018-Mar-12 18:30N 40°29' E 017°13'0 0.0
2018-Mar-12 18:00N 40°29' E 017°13'1 1.6
2018-Mar-12 17:30N 40°28' E 017°13'3 6.7
2018-Mar-12 17:00N 40°30' E 017°10'0 0.2
2018-Mar-12 16:30N 40°30' E 017°10'1 1.7
2018-Mar-12 16:00N 40°29' E 017°09'1 1.3
2018-Mar-12 15:30N 40°29' E 017°10'2 3.2
2018-Mar-12 15:00N 40°28' E 017°12'0 0.6
2018-Mar-12 14:30N 40°28' E 017°12'1 2.7
2018-Mar-12 14:00N 40°29' E 017°13'0 0.4
2018-Mar-12 13:30N 40°29' E 017°13'0 0.0
2018-Mar-12 13:00N 40°29' E 017°13'0 0.0
2018-Mar-12 12:30N 40°29' E 017°13'0 0.0
2018-Mar-12 12:00N 40°29' E 017°13'0 0.0
2018-Mar-12 11:30N 40°29' E 017°13'0 0.0
2018-Mar-12 11:00N 40°29' E 017°13'0 0.0
2018-Mar-12 10:30N 40°29' E 017°13'0 0.0
2018-Mar-12 10:00N 40°29' E 017°13'0 0.0
2018-Mar-12 09:30N 40°29' E 017°13'0 0.0
2018-Mar-12 09:00N 40°29' E 017°13'0 0.1
2018-Mar-12 08:30N 40°29' E 017°13'0 0.0
2018-Mar-12 07:59N 40°29' E 017°13'0 0.0
2018-Mar-12 07:30N 40°29' E 017°13'0 0.0
2018-Mar-12 07:00N 40°29' E 017°13'0 0.0
2018-Mar-12 06:30N 40°29' E 017°13'0 0.0
2018-Mar-12 06:00N 40°29' E 017°13'0 0.0
2018-Mar-12 05:30N 40°29' E 017°13'0 0.0
2018-Mar-12 05:01N 40°29' E 017°13'0 0.0
2018-Mar-12 04:30N 40°29' E 017°13'0 0.0
2018-Mar-12 04:01N 40°29' E 017°13'0 0.0
2018-Mar-12 03:30N 40°29' E 017°13'0 0.0
2018-Mar-12 03:00N 40°29' E 017°13'0 0.0
2018-Mar-12 02:30N 40°29' E 017°13'0 0.0
2018-Mar-12 02:00N 40°29' E 017°13'0 0.0
2018-Mar-12 01:31N 40°29' E 017°13'0 0.0
2018-Mar-12 01:01N 40°29' E 017°13'0 0.0
2018-Mar-12 00:30N 40°29' E 017°13'0 0.0
2018-Mar-12 00:00N 40°29' E 017°13'0 0.0
2018-Mar-11 23:30N 40°29' E 017°13'0 0.0
2018-Mar-11 23:00N 40°29' E 017°13'0 0.0
2018-Mar-11 22:30N 40°29' E 017°13'0 0.0
2018-Mar-11 22:00N 40°29' E 017°13'0 0.0
2018-Mar-11 21:31N 40°29' E 017°13'0 0.0
2018-Mar-11 21:00N 40°29' E 017°13'0 0.0
2018-Mar-11 20:30N 40°29' E 017°13'0 0.0
2018-Mar-11 20:00N 40°29' E 017°13'0 0.0
2018-Mar-11 19:30N 40°29' E 017°13'0 0.0
2018-Mar-11 19:00N 40°29' E 017°13'0 0.0
2018-Mar-11 18:30N 40°29' E 017°13'1 1.8
2018-Mar-11 18:00N 40°28' E 017°13'3 6.7
2018-Mar-11 17:30N 40°30' E 017°09'0 0.8
2018-Mar-11 17:00N 40°30' E 017°10'1 2.7
2018-Mar-11 16:30N 40°30' E 017°08'3 4.8
2018-Mar-11 15:59N 40°28' E 017°11'2 4.2
2018-Mar-11 15:31N 40°29' E 017°13'0 0.0
2018-Mar-11 15:01N 40°29' E 017°13'0 0.9
2018-Mar-11 14:30N 40°28' E 017°13'0 0.9
2018-Mar-11 14:00N 40°28' E 017°13'0 0.8
2018-Mar-11 13:30N 40°29' E 017°13'0 0.0
2018-Mar-11 13:01N 40°29' E 017°13'0 0.0
2018-Mar-11 12:30N 40°29' E 017°13'0 0.0
2018-Mar-11 12:00N 40°29' E 017°13'0 0.0
2018-Mar-11 11:30N 40°29' E 017°13'0 0.0
2018-Mar-11 11:00N 40°29' E 017°13'0 0.0
2018-Mar-11 10:30N 40°29' E 017°13'0 0.0
2018-Mar-11 10:00N 40°29' E 017°13'0 0.0
2018-Mar-11 09:30N 40°29' E 017°13'0 0.0
2018-Mar-11 09:00N 40°29' E 017°13'0 0.4
2018-Mar-11 08:30N 40°29' E 017°13'0 0.3
2018-Mar-11 08:00N 40°29' E 017°13'0 0.7
2018-Mar-11 07:30N 40°29' E 017°13'0 0.0
2018-Mar-11 07:01N 40°29' E 017°13'0 0.0
2018-Mar-11 06:30N 40°29' E 017°13'0 0.0
2018-Mar-11 06:00N 40°29' E 017°13'0 0.0
2018-Mar-11 05:30N 40°29' E 017°13'0 0.0
2018-Mar-11 05:01N 40°29' E 017°13'0 0.0
2018-Mar-11 04:31N 40°29' E 017°13'0 0.0
2018-Mar-11 04:00N 40°29' E 017°13'0 0.0
2018-Mar-11 03:30N 40°29' E 017°13'0 0.0
2018-Mar-11 03:00N 40°29' E 017°13'0 0.0
2018-Mar-11 02:30N 40°29' E 017°13'0 0.0
2018-Mar-11 01:59N 40°29' E 017°13'0 0.0
2018-Mar-11 01:30N 40°29' E 017°13'0 0.0
2018-Mar-11 00:59N 40°29' E 017°13'0 0.0
2018-Mar-11 00:30N 40°29' E 017°13'0 0.0
2018-Mar-11 00:00N 40°29' E 017°13'0 0.0
2018-Mar-10 23:30N 40°29' E 017°13'0 0.0
2018-Mar-10 23:00N 40°29' E 017°13'0 0.0
2018-Mar-10 22:30N 40°29' E 017°13'0 0.0
2018-Mar-10 22:01N 40°29' E 017°13'0 0.0
2018-Mar-10 21:30N 40°29' E 017°13'0 0.0
2018-Mar-10 21:01N 40°29' E 017°13'0 0.0
2018-Mar-10 20:30N 40°29' E 017°13'0 0.0
2018-Mar-10 20:01N 40°29' E 017°13'0 0.0
2018-Mar-10 19:30N 40°29' E 017°13'1 1.6
2018-Mar-10 19:00N 40°28' E 017°13'1 1.7
2018-Mar-10 18:30N 40°28' E 017°12'1 1.8
2018-Mar-10 18:00N 40°28' E 017°13'1 1.0
2018-Mar-10 17:30N 40°29' E 017°12'0 0.8
2018-Mar-10 17:00N 40°28' E 017°13'1 1.8
2018-Mar-10 16:30N 40°27' E 017°13'1 2.0
2018-Mar-10 16:00N 40°26' E 017°12'2 3.8
2018-Mar-10 15:30N 40°28' E 017°13'0 0.9
2018-Mar-10 15:00N 40°29' E 017°13'  

Dump ship's entire track history